Terminal Aerodrome Forecast
Issued by NWS Memphis, TN

Home | Current Version | Previous Version | Text Only | Print | Product List | Glossary On
Versions: 1 2 3 4 5 6 7 8 9 10 11 12 13 14 15 16
000
FTUS44 KMEG 020653 AAA
TAFJBR
TAF AMD
KJBR 020653Z 0207/0306 20014G22KT P6SM FEW010 BKN030 BKN100
     FM021700 20015G28KT P6SM BKN035 OVC100
     FM030000 21012KT P6SM OVC050
      AMD NOT SKED=

USA.gov is the U.S. government's official web portal to all federal, state and local government web resources and services.